sensor_id;sensor_type;location;lat;lon;timestamp;P1;durP1;ratioP1;P2;durP2;ratioP2
41059;SDS011;26811;53.160;8.202;2023-08-06T00:01:27;37.00;;;16.73;;
41059;SDS011;26811;53.160;8.202;2023-08-06T00:06:28;37.63;;;16.10;;
41059;SDS011;26811;53.160;8.202;2023-08-06T00:11:28;35.88;;;16.02;;
41059;SDS011;26811;53.160;8.202;2023-08-06T00:16:29;35.80;;;14.50;;
41059;SDS011;26811;53.160;8.202;2023-08-06T00:21:30;33.75;;;14.55;;
41059;SDS011;26811;53.160;8.202;2023-08-06T00:26:30;30.65;;;13.38;;
41059;SDS011;26811;53.160;8.202;2023-08-06T00:31:31;27.85;;;13.43;;
41059;SDS011;26811;53.160;8.202;2023-08-06T00:36:31;28.83;;;12.10;;
41059;SDS011;26811;53.160;8.202;2023-08-06T00:41:32;26.02;;;12.60;;
41059;SDS011;26811;53.160;8.202;2023-08-06T00:46:32;31.08;;;12.27;;
41059;SDS011;26811;53.160;8.202;2023-08-06T00:51:33;22.90;;;11.63;;
41059;SDS011;26811;53.160;8.202;2023-08-06T00:56:34;26.30;;;12.15;;
41059;SDS011;26811;53.160;8.202;2023-08-06T01:01:36;30.02;;;12.95;;
41059;SDS011;26811;53.160;8.202;2023-08-06T01:12:04;25.67;;;12.30;;
41059;SDS011;26811;53.160;8.202;2023-08-06T01:17:12;27.27;;;13.57;;
41059;SDS011;26811;53.160;8.202;2023-08-06T01:22:14;27.85;;;13.38;;
41059;SDS011;26811;53.160;8.202;2023-08-06T01:27:21;30.90;;;14.45;;
41059;SDS011;26811;53.160;8.202;2023-08-06T01:32:29;32.88;;;14.23;;
41059;SDS011;26811;53.160;8.202;2023-08-06T01:42:32;32.35;;;15.52;;
41059;SDS011;26811;53.160;8.202;2023-08-06T01:47:33;34.38;;;15.82;;
41059;SDS011;26811;53.160;8.202;2023-08-06T01:52:33;38.15;;;17.23;;
41059;SDS011;26811;53.160;8.202;2023-08-06T01:57:34;38.90;;;16.75;;
41059;SDS011;26811;53.160;8.202;2023-08-06T02:02:34;41.38;;;17.23;;
41059;SDS011;26811;53.160;8.202;2023-08-06T02:07:35;46.45;;;17.77;;
41059;SDS011;26811;53.160;8.202;2023-08-06T02:12:35;39.30;;;17.75;;
41059;SDS011;26811;53.160;8.202;2023-08-06T02:17:36;43.80;;;16.08;;
41059;SDS011;26811;53.160;8.202;2023-08-06T02:22:36;36.92;;;16.23;;
41059;SDS011;26811;53.160;8.202;2023-08-06T02:27:37;37.58;;;16.00;;
41059;SDS011;26811;53.160;8.202;2023-08-06T02:32:38;38.38;;;15.68;;
41059;SDS011;26811;53.160;8.202;2023-08-06T02:37:38;36.03;;;15.35;;
41059;SDS011;26811;53.160;8.202;2023-08-06T02:42:39;34.03;;;15.05;;
41059;SDS011;26811;53.160;8.202;2023-08-06T02:47:39;33.47;;;14.20;;
41059;SDS011;26811;53.160;8.202;2023-08-06T02:52:40;30.42;;;13.75;;
41059;SDS011;26811;53.160;8.202;2023-08-06T02:57:40;40.20;;;16.38;;
41059;SDS011;26811;53.160;8.202;2023-08-06T03:02:41;37.40;;;15.02;;
41059;SDS011;26811;53.160;8.202;2023-08-06T03:07:41;37.80;;;16.00;;
41059;SDS011;26811;53.160;8.202;2023-08-06T03:12:42;37.03;;;15.63;;
41059;SDS011;26811;53.160;8.202;2023-08-06T03:17:42;34.42;;;14.98;;
41059;SDS011;26811;53.160;8.202;2023-08-06T03:22:44;30.95;;;13.98;;
41059;SDS011;26811;53.160;8.202;2023-08-06T03:27:44;29.80;;;13.63;;
41059;SDS011;26811;53.160;8.202;2023-08-06T03:32:45;33.88;;;13.27;;
41059;SDS011;26811;53.160;8.202;2023-08-06T03:37:47;30.38;;;12.52;;
41059;SDS011;26811;53.160;8.202;2023-08-06T03:42:48;28.27;;;12.27;;
41059;SDS011;26811;53.160;8.202;2023-08-06T03:47:48;33.58;;;12.20;;
41059;SDS011;26811;53.160;8.202;2023-08-06T03:52:49;27.33;;;12.57;;
41059;SDS011;26811;53.160;8.202;2023-08-06T03:57:50;29.60;;;11.30;;
41059;SDS011;26811;53.160;8.202;2023-08-06T04:02:50;35.35;;;13.43;;
41059;SDS011;26811;53.160;8.202;2023-08-06T04:07:51;27.73;;;12.73;;
41059;SDS011;26811;53.160;8.202;2023-08-06T04:12:51;31.13;;;13.20;;
41059;SDS011;26811;53.160;8.202;2023-08-06T04:17:52;31.38;;;13.38;;
41059;SDS011;26811;53.160;8.202;2023-08-06T04:22:55;32.40;;;13.57;;
41059;SDS011;26811;53.160;8.202;2023-08-06T04:27:56;36.53;;;15.13;;
41059;SDS011;26811;53.160;8.202;2023-08-06T04:32:57;28.80;;;13.80;;
41059;SDS011;26811;53.160;8.202;2023-08-06T04:38:00;31.55;;;13.63;;
41059;SDS011;26811;53.160;8.202;2023-08-06T04:43:01;29.80;;;13.88;;
41059;SDS011;26811;53.160;8.202;2023-08-06T04:48:01;31.75;;;13.77;;
41059;SDS011;26811;53.160;8.202;2023-08-06T04:53:02;30.55;;;13.57;;
41059;SDS011;26811;53.160;8.202;2023-08-06T04:58:02;39.38;;;14.52;;
41059;SDS011;26811;53.160;8.202;2023-08-06T05:03:03;38.13;;;13.88;;
41059;SDS011;26811;53.160;8.202;2023-08-06T05:08:03;38.75;;;14.65;;
41059;SDS011;26811;53.160;8.202;2023-08-06T05:13:04;42.50;;;15.90;;
41059;SDS011;26811;53.160;8.202;2023-08-06T05:18:04;45.75;;;17.17;;
41059;SDS011;26811;53.160;8.202;2023-08-06T05:23:05;49.78;;;18.25;;
41059;SDS011;26811;53.160;8.202;2023-08-06T05:28:05;51.55;;;18.17;;
41059;SDS011;26811;53.160;8.202;2023-08-06T05:33:06;52.85;;;19.52;;
41059;SDS011;26811;53.160;8.202;2023-08-06T05:38:07;57.42;;;21.52;;
41059;SDS011;26811;53.160;8.202;2023-08-06T05:43:08;66.60;;;22.83;;
41059;SDS011;26811;53.160;8.202;2023-08-06T05:48:08;71.72;;;24.25;;
41059;SDS011;26811;53.160;8.202;2023-08-06T05:53:09;70.32;;;23.85;;
41059;SDS011;26811;53.160;8.202;2023-08-06T05:58:09;89.10;;;28.15;;
41059;SDS011;26811;53.160;8.202;2023-08-06T06:03:10;79.10;;;26.40;;
41059;SDS011;26811;53.160;8.202;2023-08-06T06:08:11;84.97;;;28.23;;
41059;SDS011;26811;53.160;8.202;2023-08-06T06:13:11;81.57;;;28.23;;
41059;SDS011;26811;53.160;8.202;2023-08-06T06:18:12;82.13;;;29.23;;
41059;SDS011;26811;53.160;8.202;2023-08-06T06:23:13;87.60;;;29.58;;
41059;SDS011;26811;53.160;8.202;2023-08-06T06:28:14;76.07;;;28.13;;
41059;SDS011;26811;53.160;8.202;2023-08-06T06:33:14;79.20;;;27.67;;
41059;SDS011;26811;53.160;8.202;2023-08-06T06:38:15;72.72;;;27.35;;
41059;SDS011;26811;53.160;8.202;2023-08-06T06:43:15;84.65;;;29.00;;
41059;SDS011;26811;53.160;8.202;2023-08-06T06:48:16;70.35;;;24.70;;
41059;SDS011;26811;53.160;8.202;2023-08-06T06:53:16;77.55;;;28.30;;
41059;SDS011;26811;53.160;8.202;2023-08-06T06:58:17;85.80;;;27.33;;
41059;SDS011;26811;53.160;8.202;2023-08-06T07:03:17;81.47;;;29.80;;
41059;SDS011;26811;53.160;8.202;2023-08-06T07:08:19;85.05;;;31.08;;
41059;SDS011;26811;53.160;8.202;2023-08-06T07:13:20;88.63;;;30.65;;
41059;SDS011;26811;53.160;8.202;2023-08-06T07:18:23;70.05;;;27.10;;
41059;SDS011;26811;53.160;8.202;2023-08-06T07:23:24;90.28;;;31.80;;
41059;SDS011;26811;53.160;8.202;2023-08-06T07:28:25;91.53;;;33.85;;
41059;SDS011;26811;53.160;8.202;2023-08-06T07:33:26;81.93;;;32.22;;
41059;SDS011;26811;53.160;8.202;2023-08-06T07:38:26;77.30;;;30.35;;
41059;SDS011;26811;53.160;8.202;2023-08-06T07:43:27;93.18;;;33.63;;
41059;SDS011;26811;53.160;8.202;2023-08-06T07:48:28;87.05;;;32.42;;
41059;SDS011;26811;53.160;8.202;2023-08-06T07:53:29;68.45;;;27.15;;
41059;SDS011;26811;53.160;8.202;2023-08-06T07:58:29;74.38;;;26.92;;
41059;SDS011;26811;53.160;8.202;2023-08-06T08:03:31;71.68;;;25.55;;
41059;SDS011;26811;53.160;8.202;2023-08-06T08:08:32;52.08;;;22.42;;
41059;SDS011;26811;53.160;8.202;2023-08-06T08:13:32;53.33;;;22.52;;
41059;SDS011;26811;53.160;8.202;2023-08-06T08:18:34;84.13;;;30.77;;
41059;SDS011;26811;53.160;8.202;2023-08-06T08:23:34;71.65;;;28.88;;
41059;SDS011;26811;53.160;8.202;2023-08-06T08:28:35;76.20;;;29.08;;
41059;SDS011;26811;53.160;8.202;2023-08-06T08:33:35;72.38;;;29.55;;
41059;SDS011;26811;53.160;8.202;2023-08-06T08:38:36;76.43;;;30.85;;
41059;SDS011;26811;53.160;8.202;2023-08-06T08:43:36;72.88;;;29.33;;
41059;SDS011;26811;53.160;8.202;2023-08-06T08:48:38;73.95;;;31.60;;
41059;SDS011;26811;53.160;8.202;2023-08-06T08:53:38;69.88;;;31.98;;
41059;SDS011;26811;53.160;8.202;2023-08-06T08:58:39;67.18;;;30.50;;
41059;SDS011;26811;53.160;8.202;2023-08-06T09:03:40;60.03;;;29.73;;
41059;SDS011;26811;53.160;8.202;2023-08-06T09:08:41;58.60;;;25.80;;
41059;SDS011;26811;53.160;8.202;2023-08-06T09:13:47;57.28;;;28.50;;
41059;SDS011;26811;53.160;8.202;2023-08-06T09:18:48;56.25;;;28.20;;
41059;SDS011;26811;53.160;8.202;2023-08-06T09:23:48;51.97;;;27.38;;
41059;SDS011;26811;53.160;8.202;2023-08-06T09:28:49;58.25;;;27.40;;
41059;SDS011;26811;53.160;8.202;2023-08-06T09:33:49;46.58;;;25.10;;
41059;SDS011;26811;53.160;8.202;2023-08-06T09:38:50;47.13;;;22.92;;
41059;SDS011;26811;53.160;8.202;2023-08-06T09:43:50;28.25;;;16.10;;
41059;SDS011;26811;53.160;8.202;2023-08-06T09:48:51;31.45;;;18.40;;
41059;SDS011;26811;53.160;8.202;2023-08-06T09:53:52;32.83;;;19.40;;
41059;SDS011;26811;53.160;8.202;2023-08-06T09:58:53;47.73;;;21.07;;
41059;SDS011;26811;53.160;8.202;2023-08-06T10:03:55;37.05;;;19.65;;
41059;SDS011;26811;53.160;8.202;2023-08-06T10:08:57;45.28;;;22.33;;
41059;SDS011;26811;53.160;8.202;2023-08-06T10:14:08;42.90;;;21.20;;
41059;SDS011;26811;53.160;8.202;2023-08-06T10:19:12;38.25;;;20.30;;
41059;SDS011;26811;53.160;8.202;2023-08-06T10:24:15;35.67;;;18.55;;
41059;SDS011;26811;53.160;8.202;2023-08-06T10:39:57;21.02;;;12.43;;
41059;SDS011;26811;53.160;8.202;2023-08-06T10:45:16;17.83;;;11.38;;
41059;SDS011;26811;53.160;8.202;2023-08-06T10:50:18;15.93;;;8.30;;
41059;SDS011;26811;53.160;8.202;2023-08-06T10:55:28;13.40;;;7.47;;
41059;SDS011;26811;53.160;8.202;2023-08-06T11:00:29;8.57;;;5.10;;
41059;SDS011;26811;53.160;8.202;2023-08-06T11:05:30;10.05;;;5.55;;
41059;SDS011;26811;53.160;8.202;2023-08-06T11:10:32;7.65;;;5.10;;
41059;SDS011;26811;53.160;8.202;2023-08-06T11:15:34;10.20;;;5.13;;
41059;SDS011;26811;53.160;8.202;2023-08-06T11:20:34;11.30;;;5.93;;
41059;SDS011;26811;53.160;8.202;2023-08-06T11:25:36;13.00;;;6.77;;
41059;SDS011;26811;53.160;8.202;2023-08-06T11:30:38;13.15;;;6.65;;
41059;SDS011;26811;53.160;8.202;2023-08-06T11:35:38;13.82;;;7.47;;
41059;SDS011;26811;53.160;8.202;2023-08-06T11:40:39;18.10;;;7.13;;
41059;SDS011;26811;53.160;8.202;2023-08-06T11:45:40;12.95;;;7.10;;
41059;SDS011;26811;53.160;8.202;2023-08-06T11:50:41;12.57;;;6.93;;
41059;SDS011;26811;53.160;8.202;2023-08-06T11:55:41;12.82;;;6.45;;
41059;SDS011;26811;53.160;8.202;2023-08-06T12:00:42;12.97;;;6.67;;
41059;SDS011;26811;53.160;8.202;2023-08-06T12:05:43;16.73;;;7.15;;
41059;SDS011;26811;53.160;8.202;2023-08-06T12:10:46;11.05;;;6.43;;
41059;SDS011;26811;53.160;8.202;2023-08-06T12:15:47;11.30;;;5.95;;
41059;SDS011;26811;53.160;8.202;2023-08-06T12:20:47;9.85;;;6.13;;
41059;SDS011;26811;53.160;8.202;2023-08-06T12:25:48;12.13;;;6.03;;
41059;SDS011;26811;53.160;8.202;2023-08-06T12:30:49;14.37;;;6.47;;
41059;SDS011;26811;53.160;8.202;2023-08-06T12:35:50;11.55;;;6.07;;
41059;SDS011;26811;53.160;8.202;2023-08-06T12:40:54;13.15;;;6.18;;
41059;SDS011;26811;53.160;8.202;2023-08-06T12:45:54;11.40;;;6.50;;
41059;SDS011;26811;53.160;8.202;2023-08-06T12:50:55;10.52;;;6.28;;
41059;SDS011;26811;53.160;8.202;2023-08-06T12:55:55;12.30;;;5.70;;
41059;SDS011;26811;53.160;8.202;2023-08-06T13:00:56;11.00;;;6.20;;
41059;SDS011;26811;53.160;8.202;2023-08-06T13:05:56;10.68;;;6.55;;
41059;SDS011;26811;53.160;8.202;2023-08-06T13:10:57;14.52;;;7.30;;
41059;SDS011;26811;53.160;8.202;2023-08-06T13:15:58;14.57;;;7.82;;
41059;SDS011;26811;53.160;8.202;2023-08-06T13:20:58;16.60;;;7.90;;
41059;SDS011;26811;53.160;8.202;2023-08-06T13:25:59;15.77;;;8.57;;
41059;SDS011;26811;53.160;8.202;2023-08-06T13:30:59;19.95;;;8.27;;
41059;SDS011;26811;53.160;8.202;2023-08-06T13:36:01;14.52;;;7.72;;
41059;SDS011;26811;53.160;8.202;2023-08-06T13:41:01;11.63;;;7.03;;
41059;SDS011;26811;53.160;8.202;2023-08-06T13:46:02;11.80;;;7.10;;
41059;SDS011;26811;53.160;8.202;2023-08-06T13:51:02;14.98;;;8.27;;
41059;SDS011;26811;53.160;8.202;2023-08-06T13:56:04;18.38;;;8.80;;
41059;SDS011;26811;53.160;8.202;2023-08-06T14:01:06;18.40;;;8.63;;
41059;SDS011;26811;53.160;8.202;2023-08-06T14:06:06;17.38;;;8.40;;
41059;SDS011;26811;53.160;8.202;2023-08-06T14:11:07;17.23;;;8.98;;
41059;SDS011;26811;53.160;8.202;2023-08-06T14:16:08;15.90;;;8.52;;
41059;SDS011;26811;53.160;8.202;2023-08-06T14:21:08;13.95;;;8.43;;
41059;SDS011;26811;53.160;8.202;2023-08-06T14:26:09;20.17;;;8.75;;
41059;SDS011;26811;53.160;8.202;2023-08-06T14:31:11;19.77;;;8.53;;
41059;SDS011;26811;53.160;8.202;2023-08-06T14:36:11;21.27;;;9.15;;
41059;SDS011;26811;53.160;8.202;2023-08-06T14:41:12;22.60;;;8.18;;
41059;SDS011;26811;53.160;8.202;2023-08-06T14:46:12;17.55;;;7.65;;
41059;SDS011;26811;53.160;8.202;2023-08-06T14:51:13;19.70;;;9.07;;
41059;SDS011;26811;53.160;8.202;2023-08-06T14:56:13;24.73;;;8.93;;
41059;SDS011;26811;53.160;8.202;2023-08-06T15:01:17;21.23;;;8.90;;
41059;SDS011;26811;53.160;8.202;2023-08-06T15:06:17;22.73;;;9.43;;
41059;SDS011;26811;53.160;8.202;2023-08-06T15:11:18;19.35;;;8.55;;
41059;SDS011;26811;53.160;8.202;2023-08-06T15:16:18;22.42;;;8.60;;
41059;SDS011;26811;53.160;8.202;2023-08-06T15:21:19;19.98;;;8.07;;
41059;SDS011;26811;53.160;8.202;2023-08-06T15:26:20;18.92;;;8.60;;
41059;SDS011;26811;53.160;8.202;2023-08-06T15:31:21;15.13;;;8.30;;
41059;SDS011;26811;53.160;8.202;2023-08-06T15:36:21;20.50;;;8.90;;
41059;SDS011;26811;53.160;8.202;2023-08-06T15:41:22;15.25;;;8.50;;
41059;SDS011;26811;53.160;8.202;2023-08-06T15:46:22;24.92;;;9.68;;
41059;SDS011;26811;53.160;8.202;2023-08-06T15:51:23;25.45;;;9.70;;
41059;SDS011;26811;53.160;8.202;2023-08-06T15:56:23;17.50;;;8.60;;
41059;SDS011;26811;53.160;8.202;2023-08-06T16:01:24;16.15;;;7.68;;
41059;SDS011;26811;53.160;8.202;2023-08-06T16:06:25;22.00;;;8.45;;
41059;SDS011;26811;53.160;8.202;2023-08-06T16:11:25;21.52;;;8.50;;
41059;SDS011;26811;53.160;8.202;2023-08-06T16:16:26;19.60;;;8.15;;
41059;SDS011;26811;53.160;8.202;2023-08-06T16:21:26;18.23;;;7.97;;
41059;SDS011;26811;53.160;8.202;2023-08-06T16:26:27;17.77;;;8.65;;
41059;SDS011;26811;53.160;8.202;2023-08-06T16:31:27;26.40;;;9.57;;
41059;SDS011;26811;53.160;8.202;2023-08-06T16:36:28;21.15;;;9.70;;
41059;SDS011;26811;53.160;8.202;2023-08-06T16:41:28;21.30;;;10.02;;
41059;SDS011;26811;53.160;8.202;2023-08-06T16:46:29;21.98;;;9.88;;
41059;SDS011;26811;53.160;8.202;2023-08-06T16:51:31;18.40;;;9.60;;
41059;SDS011;26811;53.160;8.202;2023-08-06T16:56:31;22.92;;;10.18;;
41059;SDS011;26811;53.160;8.202;2023-08-06T17:01:32;20.33;;;10.27;;
41059;SDS011;26811;53.160;8.202;2023-08-06T17:06:32;26.65;;;11.05;;
41059;SDS011;26811;53.160;8.202;2023-08-06T17:11:33;23.73;;;11.75;;
41059;SDS011;26811;53.160;8.202;2023-08-06T17:16:33;24.27;;;11.70;;
41059;SDS011;26811;53.160;8.202;2023-08-06T17:21:37;22.52;;;11.88;;
41059;SDS011;26811;53.160;8.202;2023-08-06T17:26:38;28.02;;;12.38;;
41059;SDS011;26811;53.160;8.202;2023-08-06T17:31:38;21.40;;;11.05;;
41059;SDS011;26811;53.160;8.202;2023-08-06T17:36:39;19.55;;;10.13;;
41059;SDS011;26811;53.160;8.202;2023-08-06T17:41:39;22.13;;;9.20;;
41059;SDS011;26811;53.160;8.202;2023-08-06T17:46:40;17.35;;;8.80;;
41059;SDS011;26811;53.160;8.202;2023-08-06T17:51:41;15.30;;;8.80;;
41059;SDS011;26811;53.160;8.202;2023-08-06T17:56:41;15.45;;;8.18;;
41059;SDS011;26811;53.160;8.202;2023-08-06T18:01:42;18.77;;;8.10;;
41059;SDS011;26811;53.160;8.202;2023-08-06T18:06:43;16.77;;;7.78;;
41059;SDS011;26811;53.160;8.202;2023-08-06T18:11:43;15.73;;;7.40;;
41059;SDS011;26811;53.160;8.202;2023-08-06T18:16:44;11.50;;;6.35;;
41059;SDS011;26811;53.160;8.202;2023-08-06T18:21:44;15.10;;;6.82;;
41059;SDS011;26811;53.160;8.202;2023-08-06T18:26:45;18.25;;;6.43;;
41059;SDS011;26811;53.160;8.202;2023-08-06T18:31:46;19.52;;;7.32;;
41059;SDS011;26811;53.160;8.202;2023-08-06T18:36:46;14.48;;;6.38;;
41059;SDS011;26811;53.160;8.202;2023-08-06T18:41:47;15.20;;;6.53;;
41059;SDS011;26811;53.160;8.202;2023-08-06T18:46:47;18.73;;;7.18;;
41059;SDS011;26811;53.160;8.202;2023-08-06T18:51:47;12.93;;;6.20;;
41059;SDS011;26811;53.160;8.202;2023-08-06T18:56:48;12.40;;;5.85;;
41059;SDS011;26811;53.160;8.202;2023-08-06T19:01:48;15.77;;;6.57;;
41059;SDS011;26811;53.160;8.202;2023-08-06T19:06:49;18.60;;;6.85;;
41059;SDS011;26811;53.160;8.202;2023-08-06T19:11:50;13.75;;;6.50;;
41059;SDS011;26811;53.160;8.202;2023-08-06T19:16:50;18.38;;;6.75;;
41059;SDS011;26811;53.160;8.202;2023-08-06T19:21:51;16.83;;;7.30;;
41059;SDS011;26811;53.160;8.202;2023-08-06T19:26:53;18.00;;;7.00;;
41059;SDS011;26811;53.160;8.202;2023-08-06T19:31:53;20.52;;;7.38;;
41059;SDS011;26811;53.160;8.202;2023-08-06T19:36:54;19.85;;;7.07;;
41059;SDS011;26811;53.160;8.202;2023-08-06T19:41:55;13.43;;;6.72;;
41059;SDS011;26811;53.160;8.202;2023-08-06T19:46:55;22.70;;;6.70;;
41059;SDS011;26811;53.160;8.202;2023-08-06T19:51:56;16.70;;;7.18;;
41059;SDS011;26811;53.160;8.202;2023-08-06T19:56:56;16.13;;;7.35;;
41059;SDS011;26811;53.160;8.202;2023-08-06T20:01:57;22.40;;;6.88;;
41059;SDS011;26811;53.160;8.202;2023-08-06T20:06:57;16.40;;;6.85;;
41059;SDS011;26811;53.160;8.202;2023-08-06T20:11:58;17.52;;;6.95;;
41059;SDS011;26811;53.160;8.202;2023-08-06T20:16:58;19.98;;;7.57;;
41059;SDS011;26811;53.160;8.202;2023-08-06T20:21:59;20.73;;;6.80;;
41059;SDS011;26811;53.160;8.202;2023-08-06T20:26:59;22.08;;;6.57;;
41059;SDS011;26811;53.160;8.202;2023-08-06T20:32:02;15.00;;;6.88;;
41059;SDS011;26811;53.160;8.202;2023-08-06T20:37:02;24.52;;;6.95;;
41059;SDS011;26811;53.160;8.202;2023-08-06T20:42:03;21.83;;;7.43;;
41059;SDS011;26811;53.160;8.202;2023-08-06T20:47:04;20.10;;;7.53;;
41059;SDS011;26811;53.160;8.202;2023-08-06T20:52:05;21.27;;;7.60;;
41059;SDS011;26811;53.160;8.202;2023-08-06T20:57:06;25.02;;;7.25;;
41059;SDS011;26811;53.160;8.202;2023-08-06T21:02:16;17.42;;;7.57;;
41059;SDS011;26811;53.160;8.202;2023-08-06T21:19:46;19.48;;;6.50;;
41059;SDS011;26811;53.160;8.202;2023-08-06T21:30:30;17.88;;;7.22;;
41059;SDS011;26811;53.160;8.202;2023-08-06T21:35:31;16.58;;;7.40;;
41059;SDS011;26811;53.160;8.202;2023-08-06T21:40:33;14.30;;;6.72;;
41059;SDS011;26811;53.160;8.202;2023-08-06T21:45:34;20.10;;;6.68;;
41059;SDS011;26811;53.160;8.202;2023-08-06T21:50:35;23.85;;;7.70;;
41059;SDS011;26811;53.160;8.202;2023-08-06T21:55:35;20.52;;;8.13;;
41059;SDS011;26811;53.160;8.202;2023-08-06T22:00:36;22.02;;;8.30;;
41059;SDS011;26811;53.160;8.202;2023-08-06T22:05:36;22.73;;;8.27;;
41059;SDS011;26811;53.160;8.202;2023-08-06T22:10:37;27.70;;;8.38;;
41059;SDS011;26811;53.160;8.202;2023-08-06T22:15:37;21.45;;;8.60;;
41059;SDS011;26811;53.160;8.202;2023-08-06T22:20:38;24.23;;;9.43;;
41059;SDS011;26811;53.160;8.202;2023-08-06T22:25:38;17.33;;;8.77;;
41059;SDS011;26811;53.160;8.202;2023-08-06T22:30:39;20.80;;;9.27;;
41059;SDS011;26811;53.160;8.202;2023-08-06T22:35:40;26.10;;;9.40;;
41059;SDS011;26811;53.160;8.202;2023-08-06T22:40:41;25.20;;;9.43;;
41059;SDS011;26811;53.160;8.202;2023-08-06T22:45:41;25.15;;;9.63;;
41059;SDS011;26811;53.160;8.202;2023-08-06T22:50:42;25.60;;;9.65;;
41059;SDS011;26811;53.160;8.202;2023-08-06T22:55:42;21.30;;;9.20;;
41059;SDS011;26811;53.160;8.202;2023-08-06T23:00:43;22.08;;;8.80;;
41059;SDS011;26811;53.160;8.202;2023-08-06T23:05:43;20.70;;;8.40;;
41059;SDS011;26811;53.160;8.202;2023-08-06T23:10:44;26.73;;;9.32;;
41059;SDS011;26811;53.160;8.202;2023-08-06T23:15:44;21.95;;;9.07;;
41059;SDS011;26811;53.160;8.202;2023-08-06T23:20:45;25.15;;;9.57;;
41059;SDS011;26811;53.160;8.202;2023-08-06T23:25:45;31.55;;;9.65;;
41059;SDS011;26811;53.160;8.202;2023-08-06T23:30:46;21.70;;;9.38;;
41059;SDS011;26811;53.160;8.202;2023-08-06T23:35:50;26.00;;;9.07;;
41059;SDS011;26811;53.160;8.202;2023-08-06T23:40:51;31.55;;;10.02;;
41059;SDS011;26811;53.160;8.202;2023-08-06T23:45:51;27.85;;;9.77;;
41059;SDS011;26811;53.160;8.202;2023-08-06T23:50:52;25.50;;;9.40;;
41059;SDS011;26811;53.160;8.202;2023-08-06T23:55:53;25.70;;;9.93;;
